Latest Weather Observations for Moomba Airport

IDS60801

Issued at 7:01 am CST Thursday 3 September 2015 (issued every 30 minutes, with the page automatically refreshed every 10 minutes)

About weather observations | Map of weather stations | Latest weather observations for SA | Other Formats
Station Details ID: 017123 Name: MOOMBA AIRPORT Lat: -28.10 Lon: 140.20 Height: 37.8 m
Data from the previous 72 hours. | See also: Recent months at Moomba Airport
Date/Time
CST
Temp
°C
App
Temp
°C
Dew
Point
Rel
Hum
%
Delta-T
°C
Wind Press
QNH
hPa
Press
MSL
hPa
Rain
since 9 am
mm
Dir
 
Spd
km/h
Gust
km/h
Spd
kts
Gust
kts
03/07:00am 12.2 7.4 8.9 80 1.6 WSW 24 30 13 16 1018.9 1018.8 0.0
03/06:30am 11.8 7.3 8.5 80 1.6 W 22 30 12 16 1018.3 1018.2 0.0
03/06:00am 12.0 7.4 8.1 77 1.9 W 22 28 12 15 1017.8 1017.7 0.0
03/05:30am 12.5 7.9 8.0 74 2.2 WSW 22 28 12 15 1017.5 1017.4 0.0
03/05:00am 13.2 8.2 7.9 70 2.6 W 24 32 13 17 1017.0 1016.9 0.0
03/04:30am 13.1 8.3 7.3 68 2.8 W 22 28 12 15 1016.7 1016.6 0.0
03/04:00am 13.2 8.8 7.2 67 2.9 W 20 26 11 14 1015.9 1015.8 0.0
03/03:30am 12.9 8.0 6.9 67 2.9 W 22 28 12 15 1016.0 1015.9 0.0
03/03:00am 13.1 8.2 6.7 65 3.1 W 22 32 12 17 1016.0 1015.9 0.0
03/02:30am 13.3 8.6 6.2 62 3.4 W 20 24 11 13 1015.9 1015.8 0.0
03/02:00am 13.9 7.7 6.0 59 3.8 W 28 35 15 19 1015.5 1015.4 0.0
03/01:30am 14.2 8.2 5.3 55 4.2 W 26 32 14 17 1015.3 1015.2 0.0
03/01:00am 14.2 8.4 4.5 52 4.5 W 24 30 13 16 1015.2 1015.1 0.0
03/12:30am 14.8 7.8 4.2 49 4.9 WNW 30 39 16 21 1015.1 1015.0 0.0
03/12:00am 15.2 8.2 4.0 47 5.2 W 30 41 16 22 1015.3 1015.2 0.0
 
Date/Time
CST
Temp
°C
App
Temp
°C
Dew
Point
Rel
Hum
%
Delta-T
°C
Wind Press
QNH
hPa
Press
MSL
hPa
Rain
since 9 am
mm
Dir
 
Spd
km/h
Gust
km/h
Spd
kts
Gust
kts
02/11:30pm 15.5 8.0 3.6 45 5.5 WNW 32 37 17 20 1015.3 1015.2 0.0
02/11:00pm 15.4 8.7 3.5 45 5.4 WNW 28 35 15 19 1015.3 1015.2 0.0
02/10:30pm 15.2 9.3 3.7 46 5.3 NW 24 33 13 18 1015.2 1015.1 0.0
02/10:00pm 15.3 9.8 4.1 47 5.2 NW 22 28 12 15 1015.2 1015.1 0.0
02/09:30pm 15.2 10.1 4.3 48 5.1 WNW 20 26 11 14 1015.0 1014.9 0.0
02/09:00pm 15.6 10.5 4.0 46 5.4 WNW 20 26 11 14 1015.0 1014.9 0.0
02/08:30pm 16.0 10.9 4.1 45 5.5 WNW 20 26 11 14 1014.8 1014.7 0.0
02/08:00pm 16.3 11.2 4.0 44 5.7 W 20 26 11 14 1014.6 1014.5 0.0
02/07:30pm 16.8 10.6 4.2 43 5.9 W 26 35 14 19 1014.3 1014.2 0.0
02/07:00pm 17.0 11.1 3.7 41 6.2 W 24 30 13 16 1013.9 1013.8 0.0
02/06:30pm 17.2 11.2 3.1 39 6.5 W 24 30 13 16 1013.4 1013.3 0.0
02/06:00pm 17.7 10.1 2.8 37 6.8 W 32 39 17 21 1012.7 1012.6 0.0
02/05:30pm 18.4 10.8 3.1 36 7.1 W 32 43 17 23 1012.3 1012.2 0.0
02/05:00pm 19.0 10.4 2.8 34 7.5 W 37 46 20 25 1011.8 1011.7 0.0
02/04:30pm 19.4 10.0 2.3 32 7.9 W 41 56 22 30 1011.3 1011.2 0.0
02/04:00pm 19.8 10.3 1.7 30 8.3 W 41 57 22 31 1011.3 1011.2 0.0
02/03:30pm 19.8 9.8 0.8 28 8.5 W 43 56 23 30 1011.2 1011.1 0.0
02/03:00pm 20.4 9.9 -0.8 24 9.3 W 44 61 24 33 1011.2 1011.1 0.0
02/02:51pm 20.3 10.2 -2.1 22 9.5 W 41 61 22 33 1011.0 1010.9 0.0
02/02:30pm 20.5 10.8 -2.5 21 9.7 W 39 56 21 30 1011.0 1010.9 0.0
02/02:12pm 20.8 11.0 -3.0 20 10.0 W 39 59 21 32 1010.8 1010.7 0.0
02/02:00pm 20.6 10.9 -2.5 21 9.8 W 39 50 21 27 1010.9 1010.8 0.0
02/01:39pm 21.3 11.7 -1.3 22 9.8 WSW 39 57 21 31 1011.0 1010.9 0.0
02/01:30pm 20.5 10.1 -1.9 22 9.6 W 43 57 23 31 1010.8 1010.7 0.0
02/01:19pm 20.9 11.2 -2.2 21 9.9 W 39 61 21 33 1010.8 1010.7 0.0
02/01:00pm 20.2 10.6 1.1 28 8.6 WSW 41 54 22 29 1011.0 1010.9 0.0
02/12:30pm 19.7 10.2 1.7 30 8.2 WSW 41 57 22 31 1011.3 1011.2 0.0
02/12:13pm 19.7 10.7 2.6 32 7.9 WSW 39 57 21 31 1011.3 1011.2 0.0
02/12:00pm 19.6 11.3 4.1 36 7.4 WSW 37 52 20 28 1011.6 1011.5 0.0
02/11:30am 18.3 11.0 7.4 49 5.5 WSW 35 50 19 27 1012.0 1011.9 0.0
02/11:00am 18.7 11.6 6.5 45 6.1 WSW 33 48 18 26 1011.9 1011.8 0.0
02/10:30am 18.9 11.0 6.1 43 6.3 SW 37 50 20 27 1011.8 1011.7 0.0
02/10:00am 19.0 10.6 5.5 41 6.6 WSW 39 52 21 28 1011.1 1011.0 0.0
02/09:30am 18.1 11.0 6.6 47 5.7 SW 33 50 18 27 1010.9 1010.8 0.0
02/09:00am 17.4 10.3 6.6 49 5.4 SW 33 44 18 24 1010.3 1010.2 0.8
02/08:30am 16.4 10.8 7.3 55 4.5 WSW 26 32 14 17 1010.7 1010.6 0.8
02/08:00am 16.1 12.4 7.8 58 4.2 WSW 17 24 9 13 1010.1 1010.0 0.8
02/07:30am 15.5 11.4 8.0 61 3.8 W 19 22 10 12 1009.8 1009.7 0.8
02/07:00am 15.2 10.7 8.4 64 3.4 W 22 35 12 19 1009.3 1009.2 0.8
02/06:40am 15.4 11.7 7.9 61 3.8 NNE 17 41 9 22 1008.3 1008.2 0.8
02/06:30am 15.2 12.3 8.0 62 3.6 NE 13 17 7 9 1007.5 1007.4 0.8
02/06:00am 16.0 13.1 8.0 59 4.0 NE 13 17 7 9 1007.1 1007.0 0.8
02/05:30am 16.6 15.0 8.1 57 4.3 NNW 6 7 3 4 1007.1 1007.0 0.8
02/05:00am 14.1 12.2 8.9 71 2.6 W 9 13 5 7 1007.2 1007.1 0.8
02/04:30am 14.5 11.2 8.0 65 3.3 NNE 15 17 8 9 1006.8 1006.7 0.8
02/04:00am 13.9 10.9 7.7 66 3.1 NE 13 15 7 8 1006.8 1006.7 0.8
02/03:30am 14.5 11.2 6.6 59 3.8 NE 13 17 7 9 1007.2 1007.1 0.6
02/03:00am 13.6 9.6 6.5 62 3.4 NNE 17 22 9 12 1008.4 1008.3 0.6
02/02:30am 13.7 9.6 4.6 54 4.2 E 15 19 8 10 1007.7 1007.6 0.2
02/02:00am 13.8 9.4 4.7 54 4.2 ENE 17 20 9 11 1008.5 1008.4 0.2
02/01:30am 13.7 9.6 6.3 61 3.6 ENE 17 20 9 11 1009.0 1008.9 0.2
02/01:00am 13.4 9.2 7.6 68 2.8 ENE 19 22 10 12 1009.4 1009.3 0.2
02/12:30am 13.6 10.3 6.5 62 3.4 ENE 13 15 7 8 1010.3 1010.2 0.0
02/12:00am 14.7 10.4 5.2 53 4.5 E 17 20 9 11 1010.4 1010.3 0.0
 
Date/Time
CST
Temp
°C
App
Temp
°C
Dew
Point
Rel
Hum
%
Delta-T
°C
Wind Press
QNH
hPa
Press
MSL
hPa
Rain
since 9 am
mm
Dir
 
Spd
km/h
Gust
km/h
Spd
kts
Gust
kts
01/11:30pm 15.2 10.9 5.4 52 4.7 E 17 20 9 11 1010.8 1010.7 0.0
01/11:00pm 16.0 13.2 5.0 48 5.2 E 9 17 5 9 1011.2 1011.1 0.0
01/10:30pm 16.1 13.3 6.8 54 4.6 E 11 20 6 11 1012.2 1012.1 0.0
01/10:00pm 16.5 12.7 1.8 37 6.5 E 11 15 6 8 1011.3 1011.2 0.0
01/09:30pm 16.5 11.8 2.9 40 6.2 ENE 17 22 9 12 1011.1 1011.0 0.0
01/09:00pm 17.0 11.9 3.3 40 6.3 E 19 22 10 12 1011.4 1011.3 0.0
01/08:30pm 17.6 13.0 3.5 39 6.6 E 17 20 9 11 1011.4 1011.3 0.0
01/08:00pm 17.6 13.1 4.2 41 6.3 ESE 17 20 9 11 1011.6 1011.5 0.0
01/07:30pm 17.8 14.1 4.4 41 6.4 ESE 13 19 7 10 1011.5 1011.4 0.0
01/07:00pm 17.7 13.5 3.9 40 6.5 ESE 15 19 8 10 1011.3 1011.2 0.0
01/06:30pm 18.7 13.6 3.3 36 7.2 SE 19 24 10 13 1010.8 1010.7 0.0
01/06:00pm 19.4 14.9 2.3 32 7.9 SE 15 17 8 9 1011.4 1011.3 0.0
01/05:30pm 19.8 16.9 2.6 32 8.0 ESE 7 11 4 6 1011.8 1011.7 0.0
01/05:00pm 20.7 16.8 1.1 27 8.9 E 11 13 6 7 1011.9 1011.8 0.0
01/04:30pm 21.6 17.1 -3.0 19 10.4 E 11 15 6 8 1011.6 1011.5 0.0
01/04:00pm 21.7 16.6 -2.2 20 10.3 E 15 19 8 10 1011.5 1011.4 0.0
01/03:30pm 21.4 16.8 -1.2 22 9.9 NE 13 17 7 9 1012.1 1012.0 0.0
01/03:00pm 21.6 18.1 -3.0 19 10.4 NNE 6 11 3 6 1012.7 1012.6 0.0
01/02:30pm 22.2 17.6 -4.0 17 10.9 N 11 15 6 8 1013.0 1012.9 0.0
01/02:00pm 22.2 18.4 -4.0 17 10.9 N 7 13 4 7 1013.3 1013.2 0.0
01/01:30pm 22.2 18.0 -4.0 17 10.9 N 9 13 5 7 1013.3 1013.2 0.0
01/01:00pm 22.4 17.5 -3.8 17 11.0 N 13 19 7 10 1014.3 1014.2 0.0
01/12:30pm 22.5 16.7 -4.5 16 11.2 NNW 17 24 9 13 1014.6 1014.5 0.0
01/12:00pm 22.1 16.1 -3.3 18 10.7 N 19 22 10 12 1015.3 1015.2 0.0
01/11:30am 21.4 15.7 -3.9 18 10.5 NNE 17 22 9 12 1015.6 1015.5 0.0
01/11:00am 21.4 14.4 -3.9 18 10.5 NNE 24 33 13 18 1015.7 1015.6 0.0
01/10:30am 20.9 12.4 -2.9 20 10.0 NE 32 39 17 21 1015.2 1015.1 0.0
01/10:00am 19.6 11.6 -2.1 23 9.2 NE 30 39 16 21 1015.7 1015.6 0.0
01/09:30am 19.1 10.7 -2.5 23 9.0 NE 32 37 17 20 1016.0 1015.9 0.0
01/09:00am 18.3 10.3 -2.6 24 8.6 NE 30 37 16 20 1016.3 1016.3 0.0
01/08:30am 16.8 9.5 -2.8 26 7.9 NE 26 35 14 19 1016.3 1016.3 0.0
01/08:00am 15.4 8.1 -3.0 28 7.3 ENE 26 33 14 18 1016.2 1016.2 0.0
01/07:30am 13.2 6.6 -3.5 31 6.4 NE 22 28 12 15 1016.6 1016.6 0.0
01/07:00am 12.3 6.2 -3.9 32 6.1 NE 19 24 10 13 1016.7 1016.7 0.0
01/06:30am 10.1 4.6 -5.0 34 5.4 NE 15 17 8 9 1016.6 1016.6 0.0
01/06:00am 9.3 4.1 -5.7 34 5.2 NE 13 15 7 8 1016.4 1016.4 0.0
01/05:30am 9.2 4.1 -5.4 35 5.1 NE 13 15 7 8 1016.0 1016.0 0.0
01/05:00am 9.6 4.5 -5.5 34 5.3 ENE 13 17 7 9 1015.9 1015.9 0.0
01/04:30am 8.6 3.8 -6.0 35 5.0 NE 11 13 6 7 1016.2 1016.2 0.0
01/04:00am 9.0 4.2 -6.0 34 5.2 NE 11 13 6 7 1016.2 1016.2 0.0
01/03:30am 8.4 3.6 -6.5 34 5.0 NE 11 13 6 7 1016.4 1016.4 0.0
01/03:00am 8.6 4.1 -6.4 34 5.1 ENE 9 11 5 6 1016.4 1016.4 0.0
01/02:30am 8.9 4.4 -6.5 33 5.2 ENE 9 11 5 6 1017.0 1017.0 0.0
01/02:00am 8.9 4.4 -6.9 32 5.3 ENE 9 11 5 6 1017.3 1017.3 0.0
01/01:30am 9.4 4.6 -6.4 32 5.4 E 11 13 6 7 1017.5 1017.5 0.0
01/01:00am 10.2 5.4 -6.2 31 5.7 E 11 11 6 6 1017.7 1017.7 0.0
01/12:30am 9.3 4.0 -6.9 31 5.5 E 13 15 7 8 1018.0 1018.0 0.0
01/12:00am 9.8 4.6 -6.5 31 5.6 E 13 15 7 8 1018.2 1018.2 0.0
 
Date/Time
CST
Temp
°C
App
Temp
°C
Dew
Point
Rel
Hum
%
Delta-T
°C
Wind Press
QNH
hPa
Press
MSL
hPa
Rain
since 9 am
mm
Dir
 
Spd
km/h
Gust
km/h
Spd
kts
Gust
kts
31/11:30pm 9.7 5.2 -6.6 31 5.6 E 9 11 5 6 1018.5 1018.5 0.0
31/11:00pm 10.7 6.2 -7.0 28 6.1 E 9 9 5 5 1018.8 1018.8 0.0
31/10:30pm 11.9 9.3 -5.1 30 6.2 CALM 0 0 0 0 1019.2 1019.2 0.0
31/10:00pm 12.2 9.6 -5.3 29 6.4 CALM 0 0 0 0 1019.3 1019.3 0.0
31/09:30pm 13.2 10.6 -5.4 27 6.8 CALM 0 0 0 0 1019.2 1019.2 0.0
31/09:00pm 13.2 8.8 -5.4 27 6.8 E 9 11 5 6 1018.7 1018.7 0.0
31/08:30pm 13.3 8.9 -5.8 26 7.0 ENE 9 9 5 5 1019.0 1019.0 0.0
31/08:00pm 14.1 10.1 -5.6 25 7.3 ENE 7 9 4 5 1019.1 1019.1 0.0
31/07:30pm 15.4 11.5 -5.0 24 7.7 ENE 7 9 4 5 1018.8 1018.8 0.0
31/07:00pm 15.8 11.5 -5.3 23 8.0 E 9 11 5 6 1018.5 1018.5 0.0
31/06:30pm 17.0 12.7 -4.8 22 8.5 E 9 9 5 5 1018.3 1018.3 0.0
31/06:00pm 18.7 14.9 -4.0 21 9.1 E 7 9 4 5 1018.2 1018.2 0.0
31/05:30pm 19.9 16.1 -3.7 20 9.7 ENE 7 11 4 6 1018.0 1018.0 0.0
31/05:00pm 20.3 16.2 -3.4 20 9.8 ESE 9 15 5 8 1017.9 1017.9 0.0
31/04:30pm 20.4 15.8 -4.0 19 10.0 SE 11 19 6 10 1017.9 1017.9 0.0
31/04:00pm 20.7 16.5 -3.7 19 10.1 NNE 9 13 5 7 1018.2 1018.2 0.0
31/03:30pm 20.8 17.0 -3.6 19 10.1 ESE 7 13 4 7 1018.4 1018.4 0.0
31/03:00pm 20.7 16.1 -3.7 19 10.1 E 11 17 6 9 1018.4 1018.4 0.0
31/02:30pm 20.6 16.5 -3.1 20 9.9 ESE 9 17 5 9 1018.7 1018.7 0.0
31/02:00pm 20.3 15.5 -2.7 21 9.7 SE 13 19 7 10 1019.1 1019.1 0.0
31/01:30pm 20.2 15.4 -2.2 22 9.5 ESE 13 20 7 11 1019.3 1019.3 0.0
31/01:00pm 19.6 14.9 -1.5 24 9.0 ESE 13 20 7 11 1020.1 1020.1 0.0
31/12:30pm 19.5 15.7 -1.0 25 8.8 ESE 9 15 5 8 1020.5 1020.5 0.0
31/12:00pm 19.1 14.9 -0.8 26 8.6 SE 11 19 6 10 1021.0 1021.0 0.0
31/11:30am 18.5 13.9 -1.3 26 8.4 E 13 20 7 11 1021.4 1021.4 0.0
31/11:00am 18.3 13.3 -1.5 26 8.4 E 15 26 8 14 1021.8 1021.8 0.0
31/10:30am 17.6 12.2 -1.6 27 8.0 ENE 17 22 9 12 1022.3 1022.3 0.0
31/10:00am 17.0 11.1 -2.1 27 7.9 ENE 19 24 10 13 1022.5 1022.5 0.0
31/09:30am 16.4 10.4 -1.7 29 7.4 ENE 20 24 11 13 1022.4 1022.4 0.0
31/09:00am 15.2 9.4 -1.8 31 6.9 E 19 22 10 12 1022.4 1022.4 0.0
31/08:30am 13.1 8.0 -2.0 35 6.0 E 15 19 8 10 1022.4 1022.4 0.0
31/08:00am 10.9 5.4 -2.1 40 5.0 E 17 19 9 10 1022.0 1022.0 0.0
31/07:30am 8.9 4.5 -2.1 46 4.1 E 11 13 6 7 1021.8 1021.8 0.0

Other Formats:

Comma delimited format used in spreadsheet applications
http://www.bom.gov.au/fwo/IDS60801/IDS60801.95481.axf

JavaScript Object Notation format (JSON) in row-major order
http://www.bom.gov.au/fwo/IDS60801/IDS60801.95481.json